Time;durP1;ratioP1;P1;durP2;ratioP2;P2;SDS_P1;SDS_P2;PMS_P1;PMS_P2;Temp;Humidity;BMP_temperature;BMP_pressure;BME280_temperature;BME280_humidity;BME280_pressure;Samples;Min_cycle;Max_cycle;Signal;HPM_P1;HPM_P2
2023/11/28 00:01:45;;;;;;;5.50;4.63;;;1.50;99.90;;;;;;5067673;28;20494;-79
2023/11/28 00:04:14;;;;;;;4.70;3.97;;;1.50;99.90;;;;;;5066027;28;20479;-80
2023/11/28 00:06:42;;;;;;;4.73;4.00;;;1.50;99.90;;;;;;5065613;28;20451;-80
2023/11/28 00:09:12;;;;;;;5.93;4.80;;;1.50;99.90;;;;;;5065086;28;20453;-80
2023/11/28 00:11:42;;;;;;;7.37;5.27;;;1.50;99.90;;;;;;5064827;28;20465;-80
2023/11/28 00:14:10;;;;;;;6.70;4.37;;;1.50;99.90;;;;;;5064647;28;20442;-79
2023/11/28 00:16:38;;;;;;;5.40;4.33;;;1.50;99.90;;;;;;5063820;28;20451;-81
2023/11/28 00:19:07;;;;;;;5.50;4.37;;;1.50;99.90;;;;;;5065231;28;20458;-80
2023/11/28 00:21:35;;;;;;;5.40;3.73;;;1.50;99.90;;;;;;5063415;28;20478;-79
2023/11/28 00:24:04;;;;;;;5.10;3.93;;;1.50;99.90;;;;;;5063964;28;20455;-80
2023/11/28 00:26:32;;;;;;;4.90;4.03;;;1.50;99.90;;;;;;5063924;28;20474;-80
2023/11/28 00:29:02;;;;;;;5.83;4.33;;;1.40;99.90;;;;;;5080269;28;20477;-80
2023/11/28 00:31:30;;;;;;;4.73;4.23;;;1.40;99.90;;;;;;5063876;28;20822;-80
2023/11/28 00:33:59;;;;;;;4.90;4.10;;;1.50;99.90;;;;;;5063386;28;20457;-80
2023/11/28 00:36:27;;;;;;;5.50;3.77;;;1.40;99.90;;;;;;5062808;28;20972;-80
2023/11/28 00:38:55;;;;;;;6.30;4.40;;;1.40;99.90;;;;;;5062921;28;20886;-80
2023/11/28 00:41:25;;;;;;;4.90;3.70;;;1.40;99.90;;;;;;5062765;28;20486;-80
2023/11/28 00:43:55;;;;;;;5.63;4.43;;;1.40;99.90;;;;;;5063155;28;20479;-80
2023/11/28 00:46:25;;;;;;;4.43;3.30;;;1.40;99.90;;;;;;5062406;28;20445;-79
2023/11/28 00:48:53;;;;;;;4.70;3.60;;;1.40;99.90;;;;;;5064310;28;20440;-80
2023/11/28 00:51:21;;;;;;;4.73;3.37;;;1.30;99.90;;;;;;5064121;28;20448;-79
2023/11/28 00:53:50;;;;;;;3.90;3.13;;;1.30;99.90;;;;;;5066107;28;20500;-79
2023/11/28 00:56:19;;;;;;;4.93;3.40;;;1.30;99.90;;;;;;5066028;28;20451;-80
2023/11/28 00:58:48;;;;;;;2.73;2.50;;;1.30;99.90;;;;;;5065880;28;20476;-80
2023/11/28 01:01:17;;;;;;;4.17;3.37;;;1.30;99.90;;;;;;5083113;28;20450;-80
2023/11/28 01:03:47;;;;;;;4.60;3.30;;;1.30;99.90;;;;;;5065219;28;20450;-79
2023/11/28 01:06:16;;;;;;;4.20;3.37;;;1.20;99.90;;;;;;5065706;28;20466;-80
2023/11/28 01:08:44;;;;;;;4.53;4.13;;;1.20;99.90;;;;;;5065378;28;20453;-80
2023/11/28 01:11:12;;;;;;;3.67;3.27;;;1.20;99.90;;;;;;5065641;28;20449;-80
2023/11/28 01:13:41;;;;;;;3.73;3.17;;;1.20;99.90;;;;;;5064590;28;20521;-80
2023/11/28 01:16:11;;;;;;;3.73;2.83;;;1.20;99.90;;;;;;5081155;28;20449;-80
2023/11/28 01:18:39;;;;;;;2.70;2.50;;;1.10;99.90;;;;;;5080880;28;20457;-80
2023/11/28 01:21:09;;;;;;;2.80;2.20;;;1.10;99.90;;;;;;5064827;28;20468;-80
2023/11/28 01:23:38;;;;;;;4.13;3.03;;;1.10;99.90;;;;;;5065288;28;20839;-80
2023/11/28 01:26:07;;;;;;;3.60;2.80;;;1.10;99.90;;;;;;5064546;28;20474;-80
2023/11/28 01:28:35;;;;;;;3.30;2.60;;;1.10;99.90;;;;;;5080311;28;20446;-80
2023/11/28 01:31:04;;;;;;;3.43;2.60;;;1.10;99.90;;;;;;5080080;28;20461;-80
2023/11/28 01:33:33;;;;;;;3.80;2.40;;;1.10;99.90;;;;;;5064014;28;20461;-80
2023/11/28 01:36:04;;;;;;;3.37;2.77;;;1.10;99.90;;;;;;5064093;28;20446;-80
2023/11/28 01:38:33;;;;;;;2.80;2.17;;;1.10;99.90;;;;;;5063191;28;20445;-80
2023/11/28 01:41:01;;;;;;;3.17;2.53;;;1.00;99.90;;;;;;5064426;28;20528;-80
2023/11/28 01:43:31;;;;;;;3.37;2.43;;;1.00;99.90;;;;;;5060026;28;20491;-80
2023/11/28 01:46:00;;;;;;;4.23;3.83;;;1.00;99.90;;;;;;5058723;28;20477;-80
2023/11/28 01:48:28;;;;;;;5.60;5.20;;;1.00;99.90;;;;;;5059059;28;20473;-80
2023/11/28 01:50:56;;;;;;;6.30;4.77;;;1.00;99.90;;;;;;5058313;28;20534;-80
2023/11/28 01:53:25;;;;;;;5.20;4.40;;;1.00;99.90;;;;;;5057947;28;20493;-79
2023/11/28 01:55:55;;;;;;;4.00;3.20;;;1.00;99.90;;;;;;5058003;28;20457;-79
2023/11/28 01:58:23;;;;;;;3.63;3.33;;;0.90;99.90;;;;;;5057755;28;20541;-79
2023/11/28 02:00:52;;;;;;;6.03;3.80;;;0.90;99.90;;;;;;5057660;28;20877;-79
2023/11/28 02:03:23;;;;;;;7.23;4.87;;;0.90;99.90;;;;;;5057257;28;20474;-79
2023/11/28 02:05:52;;;;;;;10.03;5.53;;;0.90;99.90;;;;;;5074478;28;20445;-79
2023/11/28 02:08:20;;;;;;;8.40;4.70;;;0.90;99.90;;;;;;5057313;28;20455;-80
2023/11/28 02:10:50;;;;;;;6.60;3.70;;;0.90;99.90;;;;;;5057653;28;20448;-79
2023/11/28 02:13:19;;;;;;;6.80;4.00;;;0.90;99.90;;;;;;5056922;28;20479;-80
2023/11/28 02:15:48;;;;;;;4.77;3.57;;;0.90;99.90;;;;;;5056562;28;20463;-80
2023/11/28 02:18:16;;;;;;;5.97;4.17;;;0.90;99.90;;;;;;5056811;28;20847;-79
2023/11/28 02:20:44;;;;;;;6.00;4.07;;;0.90;99.90;;;;;;5056928;28;20467;-79
2023/11/28 02:23:13;;;;;;;6.80;4.70;;;0.90;99.90;;;;;;5073081;28;20516;-79
2023/11/28 02:25:46;;;;;;;9.13;4.40;;;0.90;99.90;;;;;;5072860;28;20457;-80
2023/11/28 02:28:20;;;;;;;6.90;4.13;;;0.90;99.90;;;;;;5058266;28;20425;-79
2023/11/28 02:30:49;;;;;;;14.27;7.73;;;0.90;99.90;;;;;;5056382;28;20489;-79
2023/11/28 02:33:17;;;;;;;15.10;8.70;;;0.90;99.90;;;;;;5056062;28;20479;-79
2023/11/28 02:35:46;;;;;;;19.63;10.03;;;0.90;99.90;;;;;;5055855;28;20452;-79
2023/11/28 02:38:15;;;;;;;14.63;8.60;;;0.90;99.90;;;;;;5056952;28;20489;-79
2023/11/28 02:40:44;;;;;;;15.30;8.13;;;0.90;99.90;;;;;;5056811;28;20474;-79
2023/11/28 02:43:12;;;;;;;12.50;8.60;;;0.80;99.90;;;;;;5055572;28;20469;-79
2023/11/28 02:45:44;;;;;;;15.53;9.73;;;0.90;99.90;;;;;;5055614;28;20997;-79
2023/11/28 02:48:13;;;;;;;18.30;8.27;;;0.90;99.90;;;;;;5056103;28;20855;-79
2023/11/28 02:50:42;;;;;;;14.17;8.40;;;0.90;99.90;;;;;;5055805;28;20474;-79
2023/11/28 02:53:10;;;;;;;11.93;7.83;;;0.90;99.90;;;;;;5072562;28;20587;-79
2023/11/28 02:55:38;;;;;;;11.43;6.87;;;0.90;99.90;;;;;;5055519;28;20460;-79
2023/11/28 02:58:07;;;;;;;11.00;6.77;;;0.90;99.90;;;;;;5056806;28;20450;-79
2023/11/28 03:00:35;;;;;;;8.80;6.40;;;0.90;99.90;;;;;;5055238;28;20475;-79
2023/11/28 03:03:05;;;;;;;10.27;7.03;;;0.90;99.90;;;;;;5055554;28;20997;-79
2023/11/28 03:05:33;;;;;;;9.93;5.43;;;0.90;99.90;;;;;;5072363;28;20846;-78
2023/11/28 03:08:02;;;;;;;8.07;5.67;;;0.90;99.90;;;;;;5056087;28;20825;-79
2023/11/28 03:10:30;;;;;;;7.33;4.83;;;1.00;99.90;;;;;;5055278;28;20458;-79
2023/11/28 03:12:58;;;;;;;8.90;6.60;;;1.00;99.90;;;;;;5056384;28;20884;-78
2023/11/28 03:15:27;;;;;;;6.10;4.80;;;1.00;99.90;;;;;;5055016;28;20455;-79
2023/11/28 03:17:55;;;;;;;7.90;4.80;;;1.10;99.90;;;;;;5055248;28;20473;-80
2023/11/28 03:20:25;;;;;;;6.10;4.97;;;1.10;99.90;;;;;;5071888;28;20539;-79
2023/11/28 03:22:53;;;;;;;5.80;4.57;;;1.10;99.90;;;;;;5071813;28;21067;-79
2023/11/28 03:25:21;;;;;;;5.70;5.07;;;1.20;99.90;;;;;;5055885;28;20501;-79
2023/11/28 03:27:50;;;;;;;6.93;5.10;;;1.20;99.90;;;;;;5072354;28;21028;-79
2023/11/28 03:30:21;;;;;;;6.47;5.50;;;1.20;99.90;;;;;;5056802;28;20479;-79
2023/11/28 03:32:50;;;;;;;5.97;4.80;;;1.30;99.90;;;;;;5057165;28;20488;-79
2023/11/28 03:35:19;;;;;;;7.70;4.77;;;1.30;99.90;;;;;;5072238;28;20790;-80
2023/11/28 03:37:49;;;;;;;7.40;5.20;;;1.30;99.90;;;;;;5055877;28;20518;-79
2023/11/28 03:40:17;;;;;;;7.20;5.00;;;1.30;99.90;;;;;;5057814;28;20441;-79
2023/11/28 03:42:46;;;;;;;6.40;4.60;;;1.30;99.90;;;;;;5056843;28;20562;-80
2023/11/28 03:45:15;;;;;;;6.00;5.40;;;1.30;99.90;;;;;;5058140;28;20463;-80
2023/11/28 03:47:43;;;;;;;5.97;4.43;;;1.30;99.90;;;;;;5056869;28;20481;-79
2023/11/28 03:50:12;;;;;;;6.10;5.30;;;1.30;99.90;;;;;;5056270;28;20453;-79
2023/11/28 03:52:41;;;;;;;7.90;5.10;;;1.30;99.90;;;;;;5055648;28;20470;-80
2023/11/28 03:55:11;;;;;;;8.87;7.97;;;1.40;99.90;;;;;;5056327;28;20461;-79
2023/11/28 03:57:40;;;;;;;6.43;4.87;;;1.30;99.90;;;;;;5055762;28;20462;-79
2023/11/28 04:00:10;;;;;;;7.67;4.80;;;1.40;99.90;;;;;;5055893;28;20459;-79
2023/11/28 04:02:39;;;;;;;5.60;4.03;;;1.30;99.90;;;;;;5055452;28;20506;-79
2023/11/28 04:05:09;;;;;;;6.43;4.43;;;1.30;99.90;;;;;;5055588;28;20453;-79
2023/11/28 04:07:38;;;;;;;6.63;4.90;;;1.30;99.90;;;;;;5055680;28;20455;-79
2023/11/28 04:10:07;;;;;;;5.43;4.10;;;1.30;99.90;;;;;;5056945;28;20954;-79
2023/11/28 04:12:37;;;;;;;7.40;4.40;;;1.30;99.90;;;;;;5054840;28;20461;-79
2023/11/28 04:15:06;;;;;;;5.43;4.10;;;1.30;99.90;;;;;;5055340;28;20969;-79
2023/11/28 04:17:35;;;;;;;5.93;4.70;;;1.30;99.90;;;;;;5054697;28;20578;-79
2023/11/28 04:20:05;;;;;;;5.00;3.87;;;1.30;99.90;;;;;;5055058;28;20794;-79
2023/11/28 04:22:34;;;;;;;5.90;4.03;;;1.30;99.90;;;;;;5054884;28;20524;-79
2023/11/28 04:25:05;;;;;;;5.60;5.00;;;1.30;99.90;;;;;;5055384;28;20478;-80
2023/11/28 04:27:34;;;;;;;4.90;3.80;;;1.30;99.90;;;;;;5059105;28;20441;-79
2023/11/28 04:30:06;;;;;;;5.17;4.67;;;1.30;99.90;;;;;;5058492;28;20445;-79
2023/11/28 04:32:35;;;;;;;5.80;4.43;;;1.30;99.90;;;;;;5074776;28;20473;-79
2023/11/28 04:35:05;;;;;;;4.97;3.97;;;1.30;99.90;;;;;;5058054;28;20499;-80
2023/11/28 04:37:33;;;;;;;5.43;4.10;;;1.30;99.90;;;;;;5057772;28;20456;-79
2023/11/28 04:40:04;;;;;;;5.13;3.87;;;1.30;99.90;;;;;;5058445;28;20443;-79
2023/11/28 04:42:33;;;;;;;4.90;3.60;;;1.30;99.90;;;;;;5059268;28;20894;-79
2023/11/28 04:45:01;;;;;;;4.23;3.83;;;1.30;99.90;;;;;;5059167;28;20438;-79
2023/11/28 04:47:30;;;;;;;5.03;3.90;;;1.30;99.90;;;;;;5059207;28;20446;-79
2023/11/28 04:49:59;;;;;;;6.00;3.90;;;1.30;99.90;;;;;;5075336;28;20434;-79
2023/11/28 04:52:27;;;;;;;3.93;3.40;;;1.30;99.90;;;;;;5058855;28;20530;-79
2023/11/28 04:54:56;;;;;;;6.70;3.90;;;1.30;99.90;;;;;;5058808;28;20452;-79
2023/11/28 04:57:24;;;;;;;5.07;3.77;;;1.30;99.90;;;;;;5075398;28;20821;-79
2023/11/28 04:59:52;;;;;;;5.10;4.40;;;1.40;99.90;;;;;;5058405;28;20463;-79
2023/11/28 05:02:21;;;;;;;5.47;4.43;;;1.40;99.90;;;;;;5057983;28;20486;-79
2023/11/28 05:04:50;;;;;;;6.03;4.50;;;1.40;99.90;;;;;;5058542;28;20484;-79
2023/11/28 05:07:19;;;;;;;5.60;4.00;;;1.40;99.90;;;;;;5059103;28;20789;-79
2023/11/28 05:09:48;;;;;;;5.73;4.83;;;1.40;99.90;;;;;;5058177;28;20460;-80
2023/11/28 05:12:16;;;;;;;11.53;5.13;;;1.40;99.90;;;;;;5057777;28;21031;-79
2023/11/28 05:14:44;;;;;;;6.43;4.73;;;1.50;99.90;;;;;;5057685;28;20961;-79
2023/11/28 05:17:13;;;;;;;6.17;5.57;;;1.50;99.90;;;;;;5057219;28;20453;-79
2023/11/28 05:19:41;;;;;;;7.03;5.40;;;1.40;99.90;;;;;;5074154;28;20451;-79
2023/11/28 05:22:11;;;;;;;6.33;4.93;;;1.50;99.90;;;;;;5057367;28;21088;-79
2023/11/28 05:24:40;;;;;;;10.57;5.43;;;1.40;99.90;;;;;;5057257;28;20448;-79
2023/11/28 05:27:08;;;;;;;7.40;5.57;;;1.50;99.90;;;;;;5056917;28;20461;-79
2023/11/28 05:29:36;;;;;;;7.20;5.30;;;1.40;99.90;;;;;;5074469;28;20448;-79
2023/11/28 05:32:05;;;;;;;5.83;5.23;;;1.40;99.90;;;;;;5057170;28;20518;-79
2023/11/28 05:34:34;;;;;;;6.40;5.40;;;1.40;99.90;;;;;;5056982;28;20858;-79
2023/11/28 05:37:02;;;;;;;4.70;4.20;;;1.40;99.90;;;;;;5073145;28;20454;-80
2023/11/28 05:39:32;;;;;;;8.33;5.07;;;1.40;99.90;;;;;;5058132;28;20551;-80
2023/11/28 05:42:00;;;;;;;7.03;5.30;;;1.40;99.90;;;;;;5058974;28;20476;-79
2023/11/28 05:44:29;;;;;;;6.37;5.60;;;1.40;99.90;;;;;;5075184;28;20812;-80
2023/11/28 05:46:58;;;;;;;6.50;5.23;;;1.40;99.90;;;;;;5058741;28;20468;-79
2023/11/28 05:49:29;;;;;;;5.43;4.50;;;1.40;99.90;;;;;;5057886;28;20867;-79
2023/11/28 05:51:57;;;;;;;5.70;5.07;;;1.40;99.90;;;;;;5074262;28;20467;-79
2023/11/28 05:54:26;;;;;;;4.97;4.47;;;1.40;99.90;;;;;;5057684;28;20851;-79
2023/11/28 05:56:56;;;;;;;4.60;4.20;;;1.40;99.90;;;;;;5056826;28;21138;-79
2023/11/28 05:59:24;;;;;;;5.47;4.77;;;1.40;99.90;;;;;;5056900;28;20463;-79
2023/11/28 06:01:59;;;;;;;5.20;4.10;;;1.50;99.90;;;;;;5056552;28;20472;-80
2023/11/28 06:04:29;;;;;;;5.37;4.70;;;1.40;99.90;;;;;;5058013;28;20493;-79
2023/11/28 06:07:00;;;;;;;6.13;4.47;;;1.40;99.90;;;;;;5058225;28;20448;-79
2023/11/28 06:09:28;;;;;;;6.40;4.53;;;1.40;99.90;;;;;;5057855;28;20484;-79
2023/11/28 06:11:59;;;;;;;5.80;4.57;;;1.50;99.90;;;;;;5073999;28;20474;-79
2023/11/28 06:14:31;;;;;;;4.90;4.40;;;1.50;99.90;;;;;;5057084;28;20472;-78
2023/11/28 06:17:00;;;;;;;6.03;5.10;;;1.40;99.90;;;;;;5057591;28;20450;-79
2023/11/28 06:19:29;;;;;;;4.80;4.30;;;1.40;99.90;;;;;;5057368;28;20451;-79
2023/11/28 06:21:57;;;;;;;5.43;4.97;;;1.40;99.90;;;;;;5057160;28;20528;-79
2023/11/28 06:24:25;;;;;;;4.93;4.43;;;1.50;99.90;;;;;;5057076;28;20527;-79
2023/11/28 06:26:54;;;;;;;6.23;4.93;;;1.50;99.90;;;;;;5059174;28;20511;-79
2023/11/28 06:29:23;;;;;;;6.13;5.13;;;1.50;99.90;;;;;;5057572;28;20448;-79
2023/11/28 06:31:52;;;;;;;5.67;5.10;;;1.50;99.90;;;;;;5056375;28;20476;-79
2023/11/28 06:34:20;;;;;;;5.77;4.37;;;1.50;99.90;;;;;;5057222;28;20803;-79
2023/11/28 06:36:48;;;;;;;5.77;5.00;;;1.50;99.90;;;;;;5057199;28;20547;-80
2023/11/28 06:39:18;;;;;;;5.57;5.00;;;1.40;99.90;;;;;;5056307;28;20449;-80
2023/11/28 06:41:47;;;;;;;5.13;4.30;;;1.40;99.90;;;;;;5074229;28;20538;-80
2023/11/28 06:44:18;;;;;;;4.83;3.50;;;1.50;99.90;;;;;;5056120;28;20535;-80
2023/11/28 06:46:48;;;;;;;5.53;3.93;;;1.40;99.90;;;;;;5057961;28;20437;-80
2023/11/28 06:49:16;;;;;;;5.57;4.67;;;1.40;99.90;;;;;;5073060;28;20450;-80
2023/11/28 06:51:45;;;;;;;5.03;4.53;;;1.40;99.90;;;;;;5056838;28;20469;-80
2023/11/28 06:54:13;;;;;;;5.50;4.70;;;1.40;99.90;;;;;;5057398;28;20873;-79
2023/11/28 06:56:41;;;;;;;4.70;4.30;;;1.50;99.90;;;;;;5057020;28;20887;-79
2023/11/28 06:59:11;;;;;;;7.63;4.50;;;1.40;99.90;;;;;;5058405;28;20432;-80
2023/11/28 07:01:40;;;;;;;4.20;3.77;;;1.40;99.90;;;;;;5056754;28;20512;-80
2023/11/28 07:04:10;;;;;;;5.80;4.23;;;1.40;99.90;;;;;;5057814;28;20468;-80
2023/11/28 07:06:38;;;;;;;4.60;4.17;;;1.80;99.90;;;;;;5057288;28;20433;-80
2023/11/28 07:09:07;;;;;;;4.70;4.30;;;1.40;99.90;;;;;;5056573;28;20486;-80
2023/11/28 07:11:35;;;;;;;4.80;4.30;;;1.40;99.90;;;;;;5055976;28;20989;-79
2023/11/28 07:14:03;;;;;;;3.80;3.40;;;1.50;99.90;;;;;;5056216;28;20544;-81
2023/11/28 07:16:32;;;;;;;5.30;4.20;;;1.40;99.90;;;;;;5072508;28;20512;-80
2023/11/28 07:19:00;;;;;;;5.03;4.53;;;1.50;99.90;;;;;;5056048;28;20452;-81
2023/11/28 07:21:30;;;;;;;5.33;4.27;;;1.50;99.90;;;;;;5057466;28;20477;-80
2023/11/28 07:23:58;;;;;;;5.13;4.60;;;1.50;99.90;;;;;;5055744;28;20484;-81
2023/11/28 07:26:26;;;;;;;4.60;4.03;;;1.40;99.90;;;;;;5072066;28;20531;-79
2023/11/28 07:28:54;;;;;;;5.03;4.40;;;1.40;99.90;;;;;;5057423;28;20476;-80
2023/11/28 07:31:24;;;;;;;5.00;4.30;;;1.40;99.90;;;;;;5056471;28;20449;-80
2023/11/28 07:33:55;;;;;;;5.93;4.20;;;1.40;99.90;;;;;;5054763;28;20459;-80
2023/11/28 07:36:24;;;;;;;5.50;4.70;;;1.40;99.90;;;;;;5055127;28;20452;-80
2023/11/28 07:38:53;;;;;;;4.23;3.83;;;1.40;99.90;;;;;;5055350;28;20450;-80
2023/11/28 07:41:22;;;;;;;4.33;3.80;;;1.40;99.90;;;;;;5055026;28;20444;-80
2023/11/28 07:43:50;;;;;;;6.33;4.63;;;1.40;99.90;;;;;;5054818;28;20472;-80
2023/11/28 07:46:19;;;;;;;5.20;4.70;;;1.40;99.90;;;;;;5056605;28;20444;-80
2023/11/28 07:48:47;;;;;;;9.60;8.10;;;1.40;99.90;;;;;;5054701;28;20487;-80
2023/11/28 07:51:15;;;;;;;14.20;7.40;;;1.40;99.90;;;;;;5054374;28;20511;-80
2023/11/28 07:53:44;;;;;;;7.90;5.93;;;1.40;99.90;;;;;;5055659;28;20948;-79
2023/11/28 07:56:15;;;;;;;4.73;4.07;;;1.60;99.90;;;;;;5054255;28;20534;-80
2023/11/28 07:58:44;;;;;;;4.90;4.40;;;1.40;99.90;;;;;;5054910;28;20453;-80
2023/11/28 08:01:13;;;;;;;5.60;4.30;;;1.40;99.90;;;;;;5055705;28;20440;-80
2023/11/28 08:03:41;;;;;;;5.20;4.10;;;1.40;99.90;;;;;;5072411;28;20479;-81
2023/11/28 08:06:12;;;;;;;5.63;4.53;;;1.40;99.90;;;;;;5057155;28;20818;-80
2023/11/28 08:08:40;;;;;;;4.77;3.90;;;1.40;99.90;;;;;;5054997;28;20522;-80
2023/11/28 08:11:11;;;;;;;6.27;4.30;;;1.40;99.90;;;;;;5054606;28;20856;-80
2023/11/28 08:13:41;;;;;;;4.63;4.13;;;1.40;99.90;;;;;;5054915;28;20460;-80
2023/11/28 08:16:10;;;;;;;4.83;4.30;;;1.40;99.90;;;;;;5054954;28;20441;-80
2023/11/28 08:18:38;;;;;;;4.57;3.93;;;1.50;99.90;;;;;;5056315;28;20436;-80
2023/11/28 08:21:10;;;;;;;4.50;3.80;;;1.40;99.90;;;;;;5056750;28;20503;-80
2023/11/28 08:23:39;;;;;;;4.93;4.43;;;1.50;99.90;;;;;;5055008;28;20480;-81
2023/11/28 08:26:08;;;;;;;4.23;3.83;;;1.50;99.90;;;;;;5053249;28;20543;-81
2023/11/28 08:28:36;;;;;;;4.67;4.27;;;1.50;99.90;;;;;;5073117;28;20900;-81
2023/11/28 08:31:08;;;;;;;4.93;4.40;;;1.50;99.90;;;;;;5057740;28;20442;-81
2023/11/28 08:33:36;;;;;;;4.90;4.40;;;1.50;99.90;;;;;;5056509;28;20496;-81
2023/11/28 08:36:06;;;;;;;4.67;4.17;;;1.50;99.90;;;;;;5056236;28;20497;-81
2023/11/28 08:38:34;;;;;;;5.63;4.40;;;1.50;99.90;;;;;;5074118;28;20452;-81
2023/11/28 08:41:03;;;;;;;4.90;4.40;;;1.50;99.90;;;;;;5056107;28;20521;-81
2023/11/28 08:43:32;;;;;;;4.73;3.87;;;1.50;99.90;;;;;;5057780;28;20470;-81
2023/11/28 08:46:00;;;;;;;4.30;3.90;;;1.50;99.90;;;;;;5057666;28;20443;-81
2023/11/28 08:48:31;;;;;;;4.63;3.80;;;1.60;99.90;;;;;;5058911;28;20519;-81
2023/11/28 08:51:00;;;;;;;4.70;4.30;;;1.60;99.90;;;;;;5056752;28;20456;-81
2023/11/28 08:53:29;;;;;;;6.17;4.97;;;1.60;99.90;;;;;;5056086;28;20473;-81
2023/11/28 08:55:57;;;;;;;5.37;4.60;;;1.60;99.90;;;;;;5056498;28;20449;-81
2023/11/28 08:58:25;;;;;;;5.70;4.87;;;1.60;99.90;;;;;;5056406;28;20939;-80
2023/11/28 09:00:53;;;;;;;4.20;3.80;;;1.60;99.90;;;;;;5057104;28;21011;-81
2023/11/28 09:03:23;;;;;;;4.40;4.00;;;1.60;99.90;;;;;;5056006;28;20473;-81
2023/11/28 09:05:53;;;;;;;4.43;4.03;;;1.60;99.90;;;;;;5055988;28;20511;-81
2023/11/28 09:08:23;;;;;;;4.50;4.03;;;1.60;99.90;;;;;;5056240;28;20593;-81
2023/11/28 09:10:51;;;;;;;4.87;4.30;;;1.60;99.90;;;;;;5059568;28;20433;-79
2023/11/28 09:13:20;;;;;;;6.27;4.57;;;1.60;99.90;;;;;;5096224;28;20465;-79
2023/11/28 09:15:48;;;;;;;5.00;4.50;;;1.60;99.90;;;;;;5080702;28;20443;-80
2023/11/28 09:18:16;;;;;;;5.03;4.53;;;1.60;99.90;;;;;;5074022;28;20460;-81
2023/11/28 09:20:44;;;;;;;3.77;3.33;;;1.60;99.90;;;;;;5063513;28;20867;-80
2023/11/28 09:23:14;;;;;;;5.43;4.80;;;1.60;99.90;;;;;;5063735;28;20462;-80
2023/11/28 09:25:42;;;;;;;5.53;4.67;;;1.60;99.90;;;;;;5060879;28;20476;-80
2023/11/28 09:28:24;;;;;;;5.57;4.97;;;1.60;99.90;;;;;;5060782;28;20488;-81
2023/11/28 09:30:52;;;;;;;5.47;4.93;;;1.60;99.90;;;;;;5060936;28;20487;-80
2023/11/28 09:33:20;;;;;;;4.60;4.20;;;1.60;99.90;;;;;;5077027;28;20463;-80
2023/11/28 09:35:49;;;;;;;5.00;4.50;;;1.60;99.90;;;;;;5060558;28;20554;-81
2023/11/28 09:38:18;;;;;;;7.40;5.23;;;1.60;99.90;;;;;;5060311;28;20443;-80
2023/11/28 09:40:47;;;;;;;5.30;4.80;;;1.60;99.90;;;;;;5059661;28;20555;-80
2023/11/28 09:43:15;;;;;;;4.73;4.30;;;1.50;99.90;;;;;;5059933;28;20499;-80
2023/11/28 09:45:43;;;;;;;5.57;4.40;;;1.50;99.90;;;;;;5061200;28;20478;-80
2023/11/28 09:48:13;;;;;;;4.97;4.47;;;1.50;99.90;;;;;;5058708;28;20442;-80
2023/11/28 09:50:47;;;;;;;4.87;4.40;;;1.50;99.90;;;;;;5058701;28;20546;-80
2023/11/28 09:53:16;;;;;;;4.77;4.27;;;1.50;99.90;;;;;;5058586;28;20479;-80
2023/11/28 09:55:46;;;;;;;5.27;4.70;;;1.50;99.90;;;;;;5058736;28;20541;-80
2023/11/28 09:58:14;;;;;;;5.03;4.53;;;1.50;99.90;;;;;;5058369;28;20597;-80
2023/11/28 10:00:43;;;;;;;4.83;4.43;;;1.60;99.90;;;;;;5075636;28;20456;-80
2023/11/28 10:03:11;;;;;;;5.70;5.20;;;1.60;99.90;;;;;;5059340;28;20489;-80
2023/11/28 10:05:40;;;;;;;6.67;5.83;;;1.60;99.90;;;;;;5059245;28;20517;-81
2023/11/28 10:08:11;;;;;;;6.60;4.70;;;1.60;99.90;;;;;;5059669;28;20503;-81
2023/11/28 10:10:43;;;;;;;7.83;4.60;;;1.60;99.90;;;;;;5059611;28;20452;-80
2023/11/28 10:13:13;;;;;;;7.40;4.00;;;1.60;99.90;;;;;;5076167;28;20899;-80
2023/11/28 10:15:42;;;;;;;4.53;4.10;;;1.60;99.90;;;;;;5059595;28;20517;-80
2023/11/28 10:18:10;;;;;;;5.60;3.77;;;1.60;99.90;;;;;;5060759;28;20445;-81
2023/11/28 10:20:39;;;;;;;6.23;4.70;;;1.50;99.90;;;;;;5059071;28;20457;-81
2023/11/28 10:23:07;;;;;;;5.60;4.57;;;1.60;99.90;;;;;;5059302;28;20502;-81
2023/11/28 10:25:36;;;;;;;4.87;4.17;;;1.60;99.90;;;;;;5075901;28;20468;-80
2023/11/28 10:28:08;;;;;;;4.60;4.20;;;1.60;99.90;;;;;;5060890;28;20498;-80
2023/11/28 10:30:41;;;;;;;4.50;4.10;;;1.60;99.90;;;;;;5075530;28;20442;-81
2023/11/28 10:33:10;;;;;;;4.40;4.00;;;1.60;99.90;;;;;;5058879;28;20529;-81
2023/11/28 10:35:42;;;;;;;10.23;5.00;;;1.60;99.90;;;;;;5059566;28;20853;-80
2023/11/28 10:38:18;;;;;;;4.70;4.20;;;1.60;99.90;;;;;;5058968;28;20521;-81
2023/11/28 10:40:48;;;;;;;4.77;4.27;;;1.60;99.90;;;;;;5075300;28;20457;-80
2023/11/28 10:43:17;;;;;;;5.37;4.53;;;1.50;99.90;;;;;;5058589;28;20477;-81
2023/11/28 10:45:47;;;;;;;5.23;4.10;;;1.50;99.90;;;;;;5059111;28;20484;-80
2023/11/28 10:48:15;;;;;;;5.60;4.40;;;1.50;99.90;;;;;;5057816;28;20551;-81
2023/11/28 10:50:44;;;;;;;4.83;4.33;;;1.50;99.90;;;;;;5057684;28;21027;-80
2023/11/28 10:53:14;;;;;;;3.97;3.57;;;1.50;99.90;;;;;;5074950;28;20495;-81
2023/11/28 10:55:48;;;;;;;5.43;4.93;;;1.50;99.90;;;;;;5058420;28;20855;-81
2023/11/28 10:58:17;;;;;;;5.67;3.90;;;1.50;99.90;;;;;;5058991;28;20820;-81
2023/11/28 11:00:52;;;;;;;7.83;4.40;;;1.50;99.90;;;;;;5074682;28;20462;-80
2023/11/28 11:03:22;;;;;;;5.97;4.87;;;1.50;99.90;;;;;;5057379;28;20473;-81
2023/11/28 11:05:51;;;;;;;4.80;4.30;;;1.50;99.90;;;;;;5057810;28;20466;-80
2023/11/28 11:08:20;;;;;;;5.60;4.73;;;1.50;99.90;;;;;;5057374;28;20487;-81
2023/11/28 11:10:50;;;;;;;4.43;3.70;;;1.50;99.90;;;;;;5057258;28;20528;-80
2023/11/28 11:13:30;;;;;;;4.87;4.37;;;1.70;99.90;;;;;;5057133;28;20833;-80
2023/11/28 11:16:11;;;;;;;4.30;3.90;;;1.50;99.90;;;;;;5073788;28;20498;-80
2023/11/28 11:18:43;;;;;;;4.70;4.20;;;1.40;99.90;;;;;;5058438;28;20439;-81
2023/11/28 11:21:18;;;;;;;5.73;4.23;;;1.60;99.90;;;;;;5056778;28;20478;-81
2023/11/28 11:23:50;;;;;;;4.20;3.80;;;1.50;99.90;;;;;;5056388;28;20495;-80
2023/11/28 11:26:18;;;;;;;6.07;5.47;;;1.40;99.90;;;;;;5056338;28;20526;-81
2023/11/28 11:28:46;;;;;;;5.30;4.60;;;1.40;99.90;;;;;;5056185;28;20446;-80
2023/11/28 11:31:17;;;;;;;5.00;4.50;;;1.50;99.90;;;;;;5072804;28;20442;-80
2023/11/28 11:33:45;;;;;;;5.47;4.57;;;1.40;99.90;;;;;;5056230;28;20522;-80
2023/11/28 11:36:15;;;;;;;23.13;7.80;;;1.40;99.90;;;;;;5072384;28;20955;-80
2023/11/28 11:38:46;;;;;;;5.07;4.60;;;1.40;99.90;;;;;;5056608;28;20455;-80
2023/11/28 11:41:17;;;;;;;5.00;4.50;;;1.40;99.90;;;;;;5056866;28;20454;-82
2023/11/28 11:43:45;;;;;;;41.00;9.20;;;1.40;99.90;;;;;;5072891;28;21015;-82
2023/11/28 11:46:16;;;;;;;5.83;4.90;;;1.40;99.90;;;;;;5056558;28;20482;-81
2023/11/28 11:48:45;;;;;;;8.43;4.40;;;1.40;99.90;;;;;;5057513;28;20535;-81
2023/11/28 11:51:15;;;;;;;5.63;4.50;;;1.50;99.90;;;;;;5055985;28;20516;-80
2023/11/28 11:53:43;;;;;;;6.53;4.70;;;1.40;99.90;;;;;;5056306;28;20488;-81
2023/11/28 11:56:12;;;;;;;10.40;5.30;;;1.40;99.90;;;;;;5056051;28;20533;-81
2023/11/28 11:58:40;;;;;;;6.83;6.23;;;1.40;99.90;;;;;;5055566;28;20462;-81
2023/11/28 12:01:09;;;;;;;46.50;11.70;;;1.40;99.90;;;;;;5057013;28;20467;-81
2023/11/28 12:03:38;;;;;;;10.13;6.13;;;1.40;99.90;;;;;;5058655;28;20498;-81
2023/11/28 12:06:07;;;;;;;11.60;6.63;;;1.40;99.90;;;;;;5056864;28;20844;-81
2023/11/28 12:08:37;;;;;;;6.07;5.30;;;1.30;99.90;;;;;;5057652;28;20437;-81
2023/11/28 12:11:08;;;;;;;7.00;5.47;;;1.30;99.90;;;;;;5057862;28;20546;-82
2023/11/28 12:13:39;;;;;;;5.20;4.70;;;1.30;99.90;;;;;;5057317;28;20444;-81
2023/11/28 12:16:10;;;;;;;5.90;5.23;;;1.30;99.90;;;;;;5057306;28;20858;-81
2023/11/28 12:18:40;;;;;;;6.10;5.30;;;1.30;99.90;;;;;;5056291;28;20458;-81
2023/11/28 12:21:08;;;;;;;5.73;5.23;;;1.30;99.90;;;;;;5073455;28;20492;-82
2023/11/28 12:23:37;;;;;;;5.60;5.10;;;1.30;99.90;;;;;;5073816;28;20476;-82
2023/11/28 12:26:06;;;;;;;7.50;5.70;;;1.30;99.90;;;;;;5075378;28;20554;-82
2023/11/28 12:28:35;;;;;;;6.10;5.40;;;1.30;99.90;;;;;;5059997;28;20441;-82
2023/11/28 12:31:03;;;;;;;6.33;5.70;;;1.30;99.90;;;;;;5059009;28;20492;-81
2023/11/28 12:33:34;;;;;;;6.47;5.87;;;1.30;99.90;;;;;;5059840;28;20865;-82
2023/11/28 12:36:05;;;;;;;6.70;6.00;;;1.30;99.90;;;;;;5058159;28;20939;-82
2023/11/28 12:38:33;;;;;;;7.20;6.00;;;1.30;99.90;;;;;;5057959;28;20440;-81
2023/11/28 12:41:01;;;;;;;5.23;4.73;;;1.30;99.90;;;;;;5057680;28;20456;-81
2023/11/28 12:43:42;;;;;;;6.17;4.97;;;1.30;99.90;;;;;;5057877;28;20481;-81
2023/11/28 12:46:11;;;;;;;6.40;5.50;;;1.30;99.90;;;;;;5057345;28;20504;-81
2023/11/28 12:48:39;;;;;;;6.70;5.50;;;1.30;99.90;;;;;;5060335;28;20453;-82
2023/11/28 12:51:10;;;;;;;5.03;4.53;;;1.40;99.90;;;;;;5060557;28;20864;-82
2023/11/28 12:53:39;;;;;;;7.47;5.83;;;1.30;99.90;;;;;;5060766;28;20476;-81
2023/11/28 12:56:09;;;;;;;7.07;5.63;;;1.30;99.90;;;;;;5059909;28;20445;-81
2023/11/28 12:58:37;;;;;;;6.23;5.63;;;1.30;99.90;;;;;;5059764;28;20461;-80
2023/11/28 13:01:06;;;;;;;5.40;4.90;;;1.30;99.90;;;;;;5059564;28;20481;-81
2023/11/28 13:03:36;;;;;;;7.63;6.03;;;1.30;99.90;;;;;;5075996;28;20582;-81
2023/11/28 13:06:05;;;;;;;5.60;5.00;;;1.30;99.90;;;;;;5059116;28;20456;-81